sensor_id;sensor_type;location;lat;lon;timestamp;pressure;altitude;pressure_sealevel;temperature;humidity
9695;BME280;4690;52.422;13.486;2023-07-29T00:06:17;100571.69;;;20.55;87.82
9695;BME280;4690;52.422;13.486;2023-07-29T00:08:43;100564.72;;;20.52;87.56
9695;BME280;4690;52.422;13.486;2023-07-29T00:11:09;100568.44;;;20.48;87.65
9695;BME280;4690;52.422;13.486;2023-07-29T00:13:34;100570.72;;;20.41;88.05
9695;BME280;4690;52.422;13.486;2023-07-29T00:16:00;100573.28;;;20.37;87.89
9695;BME280;4690;52.422;13.486;2023-07-29T00:18:26;100567.19;;;20.35;87.73
9695;BME280;4690;52.422;13.486;2023-07-29T00:20:55;100560.78;;;20.34;87.63
9695;BME280;4690;52.422;13.486;2023-07-29T00:23:21;100555.53;;;20.33;87.74
9695;BME280;4690;52.422;13.486;2023-07-29T00:25:47;100566.94;;;20.31;87.66
9695;BME280;4690;52.422;13.486;2023-07-29T00:28:12;100564.75;;;20.28;87.54
9695;BME280;4690;52.422;13.486;2023-07-29T00:30:38;100557.00;;;20.25;87.33
9695;BME280;4690;52.422;13.486;2023-07-29T00:33:04;100562.56;;;20.25;87.23
9695;BME280;4690;52.422;13.486;2023-07-29T00:35:30;100548.94;;;20.24;87.21
9695;BME280;4690;52.422;13.486;2023-07-29T00:37:55;100555.09;;;20.21;87.08
9695;BME280;4690;52.422;13.486;2023-07-29T00:40:22;100555.69;;;20.18;86.95
9695;BME280;4690;52.422;13.486;2023-07-29T00:42:49;100548.22;;;20.13;87.18
9695;BME280;4690;52.422;13.486;2023-07-29T00:45:16;100549.91;;;20.14;86.88
9695;BME280;4690;52.422;13.486;2023-07-29T00:47:42;100546.59;;;20.12;86.42
9695;BME280;4690;52.422;13.486;2023-07-29T00:50:14;100549.13;;;20.08;85.95
9695;BME280;4690;52.422;13.486;2023-07-29T00:52:41;100548.66;;;20.01;86.22
9695;BME280;4690;52.422;13.486;2023-07-29T00:55:07;100541.44;;;20.00;86.22
9695;BME280;4690;52.422;13.486;2023-07-29T00:57:35;100553.16;;;19.97;86.33
9695;BME280;4690;52.422;13.486;2023-07-29T01:00:01;100551.78;;;19.95;86.17
9695;BME280;4690;52.422;13.486;2023-07-29T01:02:27;100547.63;;;19.92;86.32
9695;BME280;4690;52.422;13.486;2023-07-29T01:04:57;100540.16;;;19.87;86.40
9695;BME280;4690;52.422;13.486;2023-07-29T01:07:56;100541.56;;;19.85;86.54
9695;BME280;4690;52.422;13.486;2023-07-29T01:13:19;100529.16;;;19.77;86.17
9695;BME280;4690;52.422;13.486;2023-07-29T01:18:56;100523.94;;;19.70;86.10
9695;BME280;4690;52.422;13.486;2023-07-29T01:21:27;100525.91;;;19.65;86.30
9695;BME280;4690;52.422;13.486;2023-07-29T01:23:53;100514.53;;;19.61;86.54
9695;BME280;4690;52.422;13.486;2023-07-29T01:26:19;100510.13;;;19.60;86.57
9695;BME280;4690;52.422;13.486;2023-07-29T01:28:44;100511.22;;;19.59;86.31
9695;BME280;4690;52.422;13.486;2023-07-29T01:31:16;100515.13;;;19.58;86.05
9695;BME280;4690;52.422;13.486;2023-07-29T01:34:01;100509.34;;;19.55;85.89
9695;BME280;4690;52.422;13.486;2023-07-29T01:36:33;100503.50;;;19.51;85.50
9695;BME280;4690;52.422;13.486;2023-07-29T01:39:02;100511.63;;;19.47;85.80
9695;BME280;4690;52.422;13.486;2023-07-29T01:41:29;100511.06;;;19.45;85.63
9695;BME280;4690;52.422;13.486;2023-07-29T01:43:56;100502.22;;;19.43;85.82
9695;BME280;4690;52.422;13.486;2023-07-29T01:46:22;100511.38;;;19.44;85.80
9695;BME280;4690;52.422;13.486;2023-07-29T01:48:48;100511.66;;;19.42;86.00
9695;BME280;4690;52.422;13.486;2023-07-29T01:51:14;100515.84;;;19.40;85.88
9695;BME280;4690;52.422;13.486;2023-07-29T01:53:40;100517.56;;;19.36;85.64
9695;BME280;4690;52.422;13.486;2023-07-29T01:56:06;100520.34;;;19.36;85.78
9695;BME280;4690;52.422;13.486;2023-07-29T01:58:31;100522.88;;;19.32;85.61
9695;BME280;4690;52.422;13.486;2023-07-29T02:00:57;100527.34;;;19.28;85.79
9695;BME280;4690;52.422;13.486;2023-07-29T02:03:23;100518.78;;;19.24;85.76
9695;BME280;4690;52.422;13.486;2023-07-29T02:05:48;100526.88;;;19.21;85.98
9695;BME280;4690;52.422;13.486;2023-07-29T02:08:14;100521.31;;;19.21;86.46
9695;BME280;4690;52.422;13.486;2023-07-29T02:10:40;100523.53;;;19.19;86.41
9695;BME280;4690;52.422;13.486;2023-07-29T02:13:06;100526.06;;;19.15;86.22
9695;BME280;4690;52.422;13.486;2023-07-29T02:15:32;100524.94;;;19.16;86.14
9695;BME280;4690;52.422;13.486;2023-07-29T02:17:57;100519.97;;;19.13;86.24
9695;BME280;4690;52.422;13.486;2023-07-29T02:20:24;100529.72;;;19.11;86.26
9695;BME280;4690;52.422;13.486;2023-07-29T02:22:50;100528.59;;;19.12;86.08
9695;BME280;4690;52.422;13.486;2023-07-29T02:25:16;100531.13;;;19.08;85.97
9695;BME280;4690;52.422;13.486;2023-07-29T02:27:42;100530.56;;;19.06;85.96
9695;BME280;4690;52.422;13.486;2023-07-29T02:30:08;100524.19;;;19.06;86.13
9695;BME280;4690;52.422;13.486;2023-07-29T02:32:35;100523.13;;;19.01;85.80
9695;BME280;4690;52.422;13.486;2023-07-29T02:35:01;100520.91;;;18.98;86.00
9695;BME280;4690;52.422;13.486;2023-07-29T02:37:27;100529.53;;;18.97;85.97
9695;BME280;4690;52.422;13.486;2023-07-29T02:39:53;100528.16;;;18.94;85.84
9695;BME280;4690;52.422;13.486;2023-07-29T02:42:19;100531.50;;;18.91;85.63
9695;BME280;4690;52.422;13.486;2023-07-29T02:44:44;100517.06;;;18.89;85.56
9695;BME280;4690;52.422;13.486;2023-07-29T02:47:10;100518.22;;;18.88;86.12
9695;BME280;4690;52.422;13.486;2023-07-29T02:49:36;100516.56;;;18.87;86.01
9695;BME280;4690;52.422;13.486;2023-07-29T02:52:02;100509.06;;;18.88;85.99
9695;BME280;4690;52.422;13.486;2023-07-29T02:54:27;100506.56;;;18.86;86.23
9695;BME280;4690;52.422;13.486;2023-07-29T02:56:53;100521.84;;;18.84;85.95
9695;BME280;4690;52.422;13.486;2023-07-29T02:59:19;100516.59;;;18.82;85.79
9695;BME280;4690;52.422;13.486;2023-07-29T03:01:45;100523.81;;;18.78;85.74
9695;BME280;4690;52.422;13.486;2023-07-29T03:04:11;100524.94;;;18.77;86.00
9695;BME280;4690;52.422;13.486;2023-07-29T03:06:38;100523.28;;;18.71;85.94
9695;BME280;4690;52.422;13.486;2023-07-29T03:09:04;100523.28;;;18.71;85.95
9695;BME280;4690;52.422;13.486;2023-07-29T03:11:30;100522.75;;;18.69;85.99
9695;BME280;4690;52.422;13.486;2023-07-29T03:13:57;100518.88;;;18.65;85.82
9695;BME280;4690;52.422;13.486;2023-07-29T03:16:22;100526.38;;;18.64;85.67
9695;BME280;4690;52.422;13.486;2023-07-29T03:18:49;100515.81;;;18.66;85.51
9695;BME280;4690;52.422;13.486;2023-07-29T03:21:15;100523.31;;;18.66;85.82
9695;BME280;4690;52.422;13.486;2023-07-29T03:23:41;100530.56;;;18.62;85.96
9695;BME280;4690;52.422;13.486;2023-07-29T03:26:07;100513.34;;;18.59;86.11
9695;BME280;4690;52.422;13.486;2023-07-29T03:28:41;100509.75;;;18.59;86.44
9695;BME280;4690;52.422;13.486;2023-07-29T03:31:08;100520.88;;;18.59;86.70
9695;BME280;4690;52.422;13.486;2023-07-29T03:33:34;100518.91;;;18.59;86.70
9695;BME280;4690;52.422;13.486;2023-07-29T03:36:00;100511.41;;;18.60;86.59
9695;BME280;4690;52.422;13.486;2023-07-29T03:38:26;100510.84;;;18.58;86.69
9695;BME280;4690;52.422;13.486;2023-07-29T03:40:53;100513.34;;;18.59;86.75
9695;BME280;4690;52.422;13.486;2023-07-29T03:43:19;100516.41;;;18.58;86.45
9695;BME280;4690;52.422;13.486;2023-07-29T03:45:45;100520.88;;;18.59;86.72
9695;BME280;4690;52.422;13.486;2023-07-29T03:48:11;100509.22;;;18.57;86.47
9695;BME280;4690;52.422;13.486;2023-07-29T03:50:37;100526.69;;;18.57;86.84
9695;BME280;4690;52.422;13.486;2023-07-29T03:53:04;100513.91;;;18.62;86.30
9695;BME280;4690;52.422;13.486;2023-07-29T03:55:31;100510.84;;;18.58;86.76
9695;BME280;4690;52.422;13.486;2023-07-29T03:57:58;100511.72;;;18.58;86.54
9695;BME280;4690;52.422;13.486;2023-07-29T04:00:25;100512.22;;;18.60;86.97
9695;BME280;4690;52.422;13.486;2023-07-29T04:02:51;100502.50;;;18.63;86.80
9695;BME280;4690;52.422;13.486;2023-07-29T04:05:17;100510.25;;;18.66;87.11
9695;BME280;4690;52.422;13.486;2023-07-29T04:07:43;100498.56;;;18.69;87.21
9695;BME280;4690;52.422;13.486;2023-07-29T04:10:09;100496.09;;;18.73;87.67
9695;BME280;4690;52.422;13.486;2023-07-29T04:12:36;100498.00;;;18.77;88.14
9695;BME280;4690;52.422;13.486;2023-07-29T04:15:02;100490.78;;;18.81;88.14
9695;BME280;4690;52.422;13.486;2023-07-29T04:17:28;100491.84;;;18.86;88.27
9695;BME280;4690;52.422;13.486;2023-07-29T04:19:53;100503.16;;;18.94;88.47
9695;BME280;4690;52.422;13.486;2023-07-29T04:22:19;100497.56;;;18.99;88.77
9695;BME280;4690;52.422;13.486;2023-07-29T04:24:46;100492.00;;;19.04;88.50
9695;BME280;4690;52.422;13.486;2023-07-29T04:27:11;100491.94;;;19.10;88.60
9695;BME280;4690;52.422;13.486;2023-07-29T04:29:37;100482.72;;;19.14;88.92
9695;BME280;4690;52.422;13.486;2023-07-29T04:32:04;100479.91;;;19.19;89.16
9695;BME280;4690;52.422;13.486;2023-07-29T04:34:30;100495.41;;;19.25;89.08
9695;BME280;4690;52.422;13.486;2023-07-29T04:36:56;100491.22;;;19.28;89.11
9695;BME280;4690;52.422;13.486;2023-07-29T04:39:21;100491.78;;;19.30;89.36
9695;BME280;4690;52.422;13.486;2023-07-29T04:41:47;100501.75;;;19.31;89.83
9695;BME280;4690;52.422;13.486;2023-07-29T04:44:13;100496.50;;;19.30;90.30
9695;BME280;4690;52.422;13.486;2023-07-29T04:46:38;100503.66;;;19.36;90.38
9695;BME280;4690;52.422;13.486;2023-07-29T04:49:05;100503.63;;;19.41;90.29
9695;BME280;4690;52.422;13.486;2023-07-29T04:51:31;100506.06;;;19.47;90.31
9695;BME280;4690;52.422;13.486;2023-07-29T04:53:59;100497.69;;;19.53;90.99
9695;BME280;4690;52.422;13.486;2023-07-29T04:56:25;100495.69;;;19.58;90.64
9695;BME280;4690;52.422;13.486;2023-07-29T04:58:51;100500.38;;;19.63;90.79
9695;BME280;4690;52.422;13.486;2023-07-29T05:01:18;100492.84;;;19.68;90.77
9695;BME280;4690;52.422;13.486;2023-07-29T05:03:43;100489.19;;;19.68;91.17
9695;BME280;4690;52.422;13.486;2023-07-29T05:06:09;100495.84;;;19.72;91.15
9695;BME280;4690;52.422;13.486;2023-07-29T05:08:35;100496.66;;;19.73;91.20
9695;BME280;4690;52.422;13.486;2023-07-29T05:11:01;100502.81;;;19.69;91.07
9695;BME280;4690;52.422;13.486;2023-07-29T05:13:26;100494.47;;;19.69;91.55
9695;BME280;4690;52.422;13.486;2023-07-29T05:15:52;100484.97;;;19.76;91.67
9695;BME280;4690;52.422;13.486;2023-07-29T05:18:18;100494.91;;;19.82;91.56
9695;BME280;4690;52.422;13.486;2023-07-29T05:20:44;100493.75;;;19.88;91.49
9695;BME280;4690;52.422;13.486;2023-07-29T05:23:10;100488.03;;;19.98;91.35
9695;BME280;4690;52.422;13.486;2023-07-29T05:25:35;100481.22;;;20.09;91.22
9695;BME280;4690;52.422;13.486;2023-07-29T05:28:02;100490.00;;;20.22;91.15
9695;BME280;4690;52.422;13.486;2023-07-29T05:30:29;100480.06;;;20.34;91.31
9695;BME280;4690;52.422;13.486;2023-07-29T05:32:57;100481.59;;;20.46;91.11
9695;BME280;4690;52.422;13.486;2023-07-29T05:35:24;100494.81;;;20.59;90.36
9695;BME280;4690;52.422;13.486;2023-07-29T05:37:50;100499.31;;;20.55;90.04
9695;BME280;4690;52.422;13.486;2023-07-29T05:40:15;100495.69;;;20.54;90.07
9695;BME280;4690;52.422;13.486;2023-07-29T05:42:41;100495.41;;;20.56;90.27
9695;BME280;4690;52.422;13.486;2023-07-29T05:45:08;100497.09;;;20.52;90.08
9695;BME280;4690;52.422;13.486;2023-07-29T05:47:34;100504.59;;;20.56;90.56
9695;BME280;4690;52.422;13.486;2023-07-29T05:49:59;100502.25;;;20.64;90.92
9695;BME280;4690;52.422;13.486;2023-07-29T05:52:32;100497.97;;;20.71;91.11
9695;BME280;4690;52.422;13.486;2023-07-29T05:54:58;100492.94;;;20.92;90.92
9695;BME280;4690;52.422;13.486;2023-07-29T05:57:24;100499.06;;;21.08;90.45
9695;BME280;4690;52.422;13.486;2023-07-29T05:59:50;100486.31;;;21.21;90.36
9695;BME280;4690;52.422;13.486;2023-07-29T06:02:15;100486.06;;;21.36;89.73
9695;BME280;4690;52.422;13.486;2023-07-29T06:04:41;100473.50;;;21.39;88.50
9695;BME280;4690;52.422;13.486;2023-07-29T06:07:07;100467.41;;;21.51;88.13
9695;BME280;4690;52.422;13.486;2023-07-29T06:09:33;100476.44;;;21.61;87.45
9695;BME280;4690;52.422;13.486;2023-07-29T06:11:59;100469.81;;;21.57;87.23
9695;BME280;4690;52.422;13.486;2023-07-29T06:14:25;100465.72;;;21.68;86.80
9695;BME280;4690;52.422;13.486;2023-07-29T06:16:51;100455.47;;;21.78;86.88
9695;BME280;4690;52.422;13.486;2023-07-29T06:19:20;100458.47;;;21.81;86.43
9695;BME280;4690;52.422;13.486;2023-07-29T06:21:47;100455.69;;;21.95;86.34
9695;BME280;4690;52.422;13.486;2023-07-29T06:24:13;100454.03;;;22.08;86.33
9695;BME280;4690;52.422;13.486;2023-07-29T06:26:39;100452.25;;;22.12;85.38
9695;BME280;4690;52.422;13.486;2023-07-29T06:29:05;100452.16;;;22.17;85.48
9695;BME280;4690;52.422;13.486;2023-07-29T06:31:30;100457.66;;;22.22;85.05
9695;BME280;4690;52.422;13.486;2023-07-29T06:33:58;100452.59;;;22.24;84.89
9695;BME280;4690;52.422;13.486;2023-07-29T06:36:24;100454.00;;;22.35;85.26
9695;BME280;4690;52.422;13.486;2023-07-29T06:38:50;100463.81;;;22.47;84.41
9695;BME280;4690;52.422;13.486;2023-07-29T06:41:15;100458.53;;;22.59;83.95
9695;BME280;4690;52.422;13.486;2023-07-29T06:43:42;100461.47;;;22.76;83.41
9695;BME280;4690;52.422;13.486;2023-07-29T06:46:07;100465.34;;;22.89;82.01
9695;BME280;4690;52.422;13.486;2023-07-29T06:48:33;100461.91;;;23.06;82.11
9695;BME280;4690;52.422;13.486;2023-07-29T06:50:59;100457.88;;;23.21;81.33
9695;BME280;4690;52.422;13.486;2023-07-29T06:53:27;100458.56;;;23.26;79.63
9695;BME280;4690;52.422;13.486;2023-07-29T06:55:53;100463.13;;;23.45;79.82
9695;BME280;4690;52.422;13.486;2023-07-29T06:58:19;100464.50;;;23.56;78.14
9695;BME280;4690;52.422;13.486;2023-07-29T07:00:45;100476.53;;;23.57;77.87
9695;BME280;4690;52.422;13.486;2023-07-29T07:03:10;100473.22;;;23.55;78.16
9695;BME280;4690;52.422;13.486;2023-07-29T07:05:36;100473.44;;;23.13;78.63
9695;BME280;4690;52.422;13.486;2023-07-29T07:08:02;100476.94;;;23.19;79.94
9695;BME280;4690;52.422;13.486;2023-07-29T07:10:28;100474.19;;;23.27;79.87
9695;BME280;4690;52.422;13.486;2023-07-29T07:12:54;100481.00;;;23.13;79.97
9695;BME280;4690;52.422;13.486;2023-07-29T07:15:19;100476.25;;;23.13;79.41
9695;BME280;4690;52.422;13.486;2023-07-29T07:17:45;100472.88;;;23.25;79.45
9695;BME280;4690;52.422;13.486;2023-07-29T07:20:11;100476.00;;;23.23;78.55
9695;BME280;4690;52.422;13.486;2023-07-29T07:22:37;100476.00;;;23.23;78.81
9695;BME280;4690;52.422;13.486;2023-07-29T07:25:03;100461.88;;;23.29;78.79
9695;BME280;4690;52.422;13.486;2023-07-29T07:27:29;100480.53;;;23.42;78.80
9695;BME280;4690;52.422;13.486;2023-07-29T07:29:55;100466.81;;;23.54;78.50
9695;BME280;4690;52.422;13.486;2023-07-29T07:32:20;100471.69;;;23.71;78.93
9695;BME280;4690;52.422;13.486;2023-07-29T07:34:46;100474.66;;;23.75;77.95
9695;BME280;4690;52.422;13.486;2023-07-29T07:37:12;100483.28;;;23.87;77.65
9695;BME280;4690;52.422;13.486;2023-07-29T07:39:38;100473.22;;;23.86;76.87
9695;BME280;4690;52.422;13.486;2023-07-29T07:42:04;100472.25;;;23.59;76.40
9695;BME280;4690;52.422;13.486;2023-07-29T07:44:30;100465.69;;;23.64;76.30
9695;BME280;4690;52.422;13.486;2023-07-29T07:46:55;100465.38;;;23.65;76.24
9695;BME280;4690;52.422;13.486;2023-07-29T07:49:22;100464.06;;;23.63;77.20
9695;BME280;4690;52.422;13.486;2023-07-29T07:51:48;100464.66;;;23.51;76.79
9695;BME280;4690;52.422;13.486;2023-07-29T07:54:13;100460.69;;;23.52;77.47
9695;BME280;4690;52.422;13.486;2023-07-29T07:56:39;100452.16;;;23.57;77.71
9695;BME280;4690;52.422;13.486;2023-07-29T07:59:05;100460.41;;;23.62;76.62
9695;BME280;4690;52.422;13.486;2023-07-29T08:01:39;100452.22;;;23.66;77.19
9695;BME280;4690;52.422;13.486;2023-07-29T08:04:05;100459.34;;;23.72;76.82
9695;BME280;4690;52.422;13.486;2023-07-29T08:06:32;100455.13;;;23.83;77.30
9695;BME280;4690;52.422;13.486;2023-07-29T08:08:58;100456.06;;;23.79;76.54
9695;BME280;4690;52.422;13.486;2023-07-29T08:11:25;100456.59;;;23.81;75.77
9695;BME280;4690;52.422;13.486;2023-07-29T08:13:51;100446.88;;;23.87;75.62
9695;BME280;4690;52.422;13.486;2023-07-29T08:16:17;100446.25;;;23.99;75.48
9695;BME280;4690;52.422;13.486;2023-07-29T08:18:42;100450.75;;;24.08;75.68
9695;BME280;4690;52.422;13.486;2023-07-29T08:21:09;100455.16;;;24.01;74.38
9695;BME280;4690;52.422;13.486;2023-07-29T08:23:35;100454.00;;;24.02;74.09
9695;BME280;4690;52.422;13.486;2023-07-29T08:26:04;100447.31;;;24.11;73.92
9695;BME280;4690;52.422;13.486;2023-07-29T08:28:32;100442.78;;;23.93;74.41
9695;BME280;4690;52.422;13.486;2023-07-29T08:30:58;100445.13;;;24.00;74.25
9695;BME280;4690;52.422;13.486;2023-07-29T08:33:25;100443.28;;;23.86;73.91
9695;BME280;4690;52.422;13.486;2023-07-29T08:35:51;100433.06;;;23.90;74.36
9695;BME280;4690;52.422;13.486;2023-07-29T08:38:18;100430.78;;;24.01;74.06
9695;BME280;4690;52.422;13.486;2023-07-29T08:40:58;100432.81;;;24.18;74.33
9695;BME280;4690;52.422;13.486;2023-07-29T08:43:38;100428.22;;;24.31;73.63
9695;BME280;4690;52.422;13.486;2023-07-29T08:46:04;100428.22;;;24.22;73.21
9695;BME280;4690;52.422;13.486;2023-07-29T08:48:45;100428.88;;;24.28;74.21
9695;BME280;4690;52.422;13.486;2023-07-29T08:51:12;100421.31;;;24.37;72.92
9695;BME280;4690;52.422;13.486;2023-07-29T08:53:39;100416.41;;;24.60;72.83
9695;BME280;4690;52.422;13.486;2023-07-29T08:56:06;100426.63;;;24.82;71.76
9695;BME280;4690;52.422;13.486;2023-07-29T08:58:33;100420.03;;;24.95;70.85
9695;BME280;4690;52.422;13.486;2023-07-29T09:00:59;100420.19;;;25.16;69.86
9695;BME280;4690;52.422;13.486;2023-07-29T09:03:25;100430.38;;;25.30;69.62
9695;BME280;4690;52.422;13.486;2023-07-29T09:05:52;100424.59;;;25.35;69.43
9695;BME280;4690;52.422;13.486;2023-07-29T09:08:19;100418.00;;;25.31;69.17
9695;BME280;4690;52.422;13.486;2023-07-29T09:10:46;100418.16;;;25.25;69.94
9695;BME280;4690;52.422;13.486;2023-07-29T09:13:12;100419.19;;;25.21;69.32
9695;BME280;4690;52.422;13.486;2023-07-29T09:15:40;100422.00;;;25.21;69.52
9695;BME280;4690;52.422;13.486;2023-07-29T09:18:17;100417.06;;;25.18;69.89
9695;BME280;4690;52.422;13.486;2023-07-29T09:20:43;100408.78;;;25.21;70.28
9695;BME280;4690;52.422;13.486;2023-07-29T09:23:10;100412.56;;;25.25;70.80
9695;BME280;4690;52.422;13.486;2023-07-29T09:25:37;100410.91;;;25.24;70.04
9695;BME280;4690;52.422;13.486;2023-07-29T09:28:15;100411.59;;;25.21;69.80
9695;BME280;4690;52.422;13.486;2023-07-29T09:30:45;100408.75;;;25.30;68.02
9695;BME280;4690;52.422;13.486;2023-07-29T09:33:11;100400.25;;;25.56;67.91
9695;BME280;4690;52.422;13.486;2023-07-29T09:35:38;100406.06;;;25.51;67.11
9695;BME280;4690;52.422;13.486;2023-07-29T09:38:05;100390.69;;;25.57;67.16
9695;BME280;4690;52.422;13.486;2023-07-29T09:40:40;100394.22;;;25.75;67.52
9695;BME280;4690;52.422;13.486;2023-07-29T09:43:09;100390.28;;;25.67;65.66
9695;BME280;4690;52.422;13.486;2023-07-29T09:45:37;100387.03;;;25.65;66.34
9695;BME280;4690;52.422;13.486;2023-07-29T09:48:05;100388.50;;;25.63;66.41
9695;BME280;4690;52.422;13.486;2023-07-29T09:50:35;100392.00;;;25.60;65.00
9695;BME280;4690;52.422;13.486;2023-07-29T09:53:02;100381.59;;;25.60;66.06
9695;BME280;4690;52.422;13.486;2023-07-29T09:55:30;100377.56;;;25.70;66.56
9695;BME280;4690;52.422;13.486;2023-07-29T09:58:00;100365.38;;;25.66;66.46
9695;BME280;4690;52.422;13.486;2023-07-29T10:00:29;100361.22;;;25.72;65.84
9695;BME280;4690;52.422;13.486;2023-07-29T10:02:57;100368.13;;;25.75;65.23
9695;BME280;4690;52.422;13.486;2023-07-29T10:05:25;100367.78;;;25.76;65.50
9695;BME280;4690;52.422;13.486;2023-07-29T10:07:51;100365.53;;;25.69;65.94
9695;BME280;4690;52.422;13.486;2023-07-29T10:10:17;100366.06;;;25.92;66.78
9695;BME280;4690;52.422;13.486;2023-07-29T10:12:44;100358.84;;;26.12;65.62
9695;BME280;4690;52.422;13.486;2023-07-29T10:15:10;100356.56;;;26.27;64.37
9695;BME280;4690;52.422;13.486;2023-07-29T10:17:38;100345.34;;;26.27;63.28
9695;BME280;4690;52.422;13.486;2023-07-29T10:20:09;100351.94;;;26.31;63.95
9695;BME280;4690;52.422;13.486;2023-07-29T10:22:43;100356.31;;;26.20;64.48
9695;BME280;4690;52.422;13.486;2023-07-29T10:25:23;100351.03;;;26.18;64.79
9695;BME280;4690;52.422;13.486;2023-07-29T10:28:01;100341.00;;;25.87;64.01
9695;BME280;4690;52.422;13.486;2023-07-29T10:30:31;100345.06;;;25.99;65.19
9695;BME280;4690;52.422;13.486;2023-07-29T10:33:06;100334.72;;;26.11;63.36
9695;BME280;4690;52.422;13.486;2023-07-29T10:35:33;100326.84;;;26.26;63.08
9695;BME280;4690;52.422;13.486;2023-07-29T10:38:01;100329.03;;;26.41;62.17
9695;BME280;4690;52.422;13.486;2023-07-29T10:40:48;100330.56;;;26.17;61.80
9695;BME280;4690;52.422;13.486;2023-07-29T10:43:36;100329.44;;;25.89;59.22
9695;BME280;4690;52.422;13.486;2023-07-29T10:46:23;100332.28;;;25.80;58.10
9695;BME280;4690;52.422;13.486;2023-07-29T10:48:55;100321.38;;;25.79;59.62
9695;BME280;4690;52.422;13.486;2023-07-29T10:54:14;100297.47;;;25.72;60.94
9695;BME280;4690;52.422;13.486;2023-07-29T10:56:43;100298.63;;;26.01;60.69
9695;BME280;4690;52.422;13.486;2023-07-29T11:01:41;100297.22;;;26.16;60.12
9695;BME280;4690;52.422;13.486;2023-07-29T11:12:36;100280.69;;;26.14;58.74
9695;BME280;4690;52.422;13.486;2023-07-29T11:15:28;100282.59;;;26.23;59.14
9695;BME280;4690;52.422;13.486;2023-07-29T11:18:01;100287.84;;;26.24;57.88
9695;BME280;4690;52.422;13.486;2023-07-29T11:20:31;100325.38;;;26.07;58.94
9695;BME280;4690;52.422;13.486;2023-07-29T11:23:02;100374.03;;;25.82;66.29
9695;BME280;4690;52.422;13.486;2023-07-29T11:25:30;100373.66;;;25.07;72.80
9695;BME280;4690;52.422;13.486;2023-07-29T11:27:59;100365.47;;;24.58;77.10
9695;BME280;4690;52.422;13.486;2023-07-29T11:30:25;100359.53;;;24.33;79.96
9695;BME280;4690;52.422;13.486;2023-07-29T11:32:58;100361.00;;;24.05;82.16
9695;BME280;4690;52.422;13.486;2023-07-29T11:35:24;100370.13;;;23.79;84.09
9695;BME280;4690;52.422;13.486;2023-07-29T11:37:52;100356.38;;;23.52;85.39
9695;BME280;4690;52.422;13.486;2023-07-29T11:40:22;100344.78;;;23.36;86.40
9695;BME280;4690;52.422;13.486;2023-07-29T11:42:51;100332.59;;;23.23;87.66
9695;BME280;4690;52.422;13.486;2023-07-29T11:45:18;100337.28;;;23.14;89.31
9695;BME280;4690;52.422;13.486;2023-07-29T11:47:44;100330.06;;;22.90;90.59
9695;BME280;4690;52.422;13.486;2023-07-29T11:50:13;100324.16;;;22.92;90.82
9695;BME280;4690;52.422;13.486;2023-07-29T11:52:44;100318.97;;;22.99;91.93
9695;BME280;4690;52.422;13.486;2023-07-29T11:55:13;100321.16;;;23.11;91.94
9695;BME280;4690;52.422;13.486;2023-07-29T11:57:40;100315.59;;;23.19;92.75
9695;BME280;4690;52.422;13.486;2023-07-29T12:00:09;100312.84;;;23.28;93.42
9695;BME280;4690;52.422;13.486;2023-07-29T12:02:41;100324.41;;;23.35;93.15
9695;BME280;4690;52.422;13.486;2023-07-29T12:05:10;100318.97;;;23.39;93.66
9695;BME280;4690;52.422;13.486;2023-07-29T12:07:43;100322.59;;;23.39;94.15
9695;BME280;4690;52.422;13.486;2023-07-29T12:10:11;100315.22;;;23.43;94.60
9695;BME280;4690;52.422;13.486;2023-07-29T12:12:55;100307.34;;;23.45;94.29
9695;BME280;4690;52.422;13.486;2023-07-29T12:15:29;100310.31;;;23.49;94.70
9695;BME280;4690;52.422;13.486;2023-07-29T12:17:59;100311.13;;;23.49;94.88
9695;BME280;4690;52.422;13.486;2023-07-29T12:20:29;100325.09;;;23.49;95.13
9695;BME280;4690;52.422;13.486;2023-07-29T12:23:00;100326.91;;;23.45;94.89
9695;BME280;4690;52.422;13.486;2023-07-29T12:25:31;100322.13;;;23.37;94.73
9695;BME280;4690;52.422;13.486;2023-07-29T12:28:04;100314.69;;;23.33;94.51
9695;BME280;4690;52.422;13.486;2023-07-29T12:30:30;100326.81;;;23.28;94.70
9695;BME280;4690;52.422;13.486;2023-07-29T12:32:56;100336.00;;;23.20;94.64
9695;BME280;4690;52.422;13.486;2023-07-29T12:35:22;100336.94;;;23.07;94.83
9695;BME280;4690;52.422;13.486;2023-07-29T12:37:58;100338.53;;;22.99;95.16
9695;BME280;4690;52.422;13.486;2023-07-29T12:40:26;100335.97;;;22.89;94.77
9695;BME280;4690;52.422;13.486;2023-07-29T12:42:52;100331.66;;;22.82;95.22
9695;BME280;4690;52.422;13.486;2023-07-29T12:45:19;100316.31;;;22.71;95.74
9695;BME280;4690;52.422;13.486;2023-07-29T12:47:45;100313.22;;;22.73;95.64
9695;BME280;4690;52.422;13.486;2023-07-29T12:50:11;100314.22;;;22.77;96.24
9695;BME280;4690;52.422;13.486;2023-07-29T12:52:36;100312.44;;;22.81;97.26
9695;BME280;4690;52.422;13.486;2023-07-29T12:55:02;100303.97;;;22.95;97.21
9695;BME280;4690;52.422;13.486;2023-07-29T12:57:28;100301.97;;;23.18;98.61
9695;BME280;4690;52.422;13.486;2023-07-29T12:59:54;100298.56;;;23.30;98.23
9695;BME280;4690;52.422;13.486;2023-07-29T13:02:20;100310.41;;;23.35;98.28
9695;BME280;4690;52.422;13.486;2023-07-29T13:04:45;100306.50;;;23.45;98.06
9695;BME280;4690;52.422;13.486;2023-07-29T13:07:11;100309.97;;;23.50;97.91
9695;BME280;4690;52.422;13.486;2023-07-29T13:09:37;100309.50;;;23.57;98.16
9695;BME280;4690;52.422;13.486;2023-07-29T13:12:03;100304.22;;;23.56;97.47
9695;BME280;4690;52.422;13.486;2023-07-29T13:14:29;100316.53;;;23.37;95.55
9695;BME280;4690;52.422;13.486;2023-07-29T13:16:55;100319.09;;;23.25;94.13
9695;BME280;4690;52.422;13.486;2023-07-29T13:19:20;100311.47;;;23.17;94.40
9695;BME280;4690;52.422;13.486;2023-07-29T13:21:46;100328.00;;;22.96;92.99
9695;BME280;4690;52.422;13.486;2023-07-29T13:24:12;100338.41;;;22.81;92.53
9695;BME280;4690;52.422;13.486;2023-07-29T13:26:37;100338.47;;;22.68;92.95